Terminal Aerodrome Forecast
Issued by NWS St Louis, MO

Home | Current Version | Previous Version | Text Only | Print | Product List | Glossary On
Versions: 1 2 3 4 5 6 7 8 9 10 11 12 13 14 15 16 17 18 19 20 21 22 23 24 25 26 27 28
593
FTUS43 KLSX 260520
TAFSTL
TAF
KSTL 260520Z 2606/2712 22008KT P6SM BKN020
     FM260900 23006KT 6SM BR OVC015
     FM261200 24007KT 5SM BR OVC010
     FM261600 25008KT P6SM OVC015
     FM262100 25008KT P6SM BKN025
     FM270100 VRB04KT P6SM BKN040=

USA.gov is the U.S. government's official web portal to all federal, state and local government web resources and services.